sensor_id;sensor_type;location;lat;lon;timestamp;P1;P2;P0
40371;PMS5003;28564;53.346;-6.554;2023-01-05T00:01:09;4;3;
40371;PMS5003;28564;53.346;-6.554;2023-01-05T00:03:38;6;3;
40371;PMS5003;28564;53.346;-6.554;2023-01-05T00:06:07;8;5;
40371;PMS5003;28564;53.346;-6.554;2023-01-05T00:08:37;6;5;
40371;PMS5003;28564;53.346;-6.554;2023-01-05T00:11:05;3;3;
40371;PMS5003;28564;53.346;-6.554;2023-01-05T00:13:33;4;4;
40371;PMS5003;28564;53.346;-6.554;2023-01-05T00:16:01;7;4;
40371;PMS5003;28564;53.346;-6.554;2023-01-05T00:18:28;6;3;
40371;PMS5003;28564;53.346;-6.554;2023-01-05T00:20:55;4;3;
40371;PMS5003;28564;53.346;-6.554;2023-01-05T00:23:22;7;7;
40371;PMS5003;28564;53.346;-6.554;2023-01-05T00:25:49;4;4;
40371;PMS5003;28564;53.346;-6.554;2023-01-05T00:28:16;4;3;
40371;PMS5003;28564;53.346;-6.554;2023-01-05T00:30:44;6;6;
40371;PMS5003;28564;53.346;-6.554;2023-01-05T00:33:13;4;3;
40371;PMS5003;28564;53.346;-6.554;2023-01-05T00:35:41;7;5;
40371;PMS5003;28564;53.346;-6.554;2023-01-05T00:38:10;4;3;
40371;PMS5003;28564;53.346;-6.554;2023-01-05T00:40:37;6;3;
40371;PMS5003;28564;53.346;-6.554;2023-01-05T00:43:04;4;4;
40371;PMS5003;28564;53.346;-6.554;2023-01-05T00:45:32;8;7;
40371;PMS5003;28564;53.346;-6.554;2023-01-05T00:47:59;7;4;
40371;PMS5003;28564;53.346;-6.554;2023-01-05T00:50:27;5;4;
40371;PMS5003;28564;53.346;-6.554;2023-01-05T00:52:54;7;5;
40371;PMS5003;28564;53.346;-6.554;2023-01-05T00:55:21;11;7;
40371;PMS5003;28564;53.346;-6.554;2023-01-05T00:57:48;14;13;
40371;PMS5003;28564;53.346;-6.554;2023-01-05T01:00:16;15;15;
40371;PMS5003;28564;53.346;-6.554;2023-01-05T01:02:45;10;10;
40371;PMS5003;28564;53.346;-6.554;2023-01-05T01:05:12;8;8;
40371;PMS5003;28564;53.346;-6.554;2023-01-05T01:07:39;6;5;
40371;PMS5003;28564;53.346;-6.554;2023-01-05T01:10:07;3;3;
40371;PMS5003;28564;53.346;-6.554;2023-01-05T01:12:35;2;2;
40371;PMS5003;28564;53.346;-6.554;2023-01-05T01:15:03;6;3;
40371;PMS5003;28564;53.346;-6.554;2023-01-05T01:17:31;5;3;
40371;PMS5003;28564;53.346;-6.554;2023-01-05T01:19:58;5;4;
40371;PMS5003;28564;53.346;-6.554;2023-01-05T01:22:26;5;3;
40371;PMS5003;28564;53.346;-6.554;2023-01-05T01:24:53;9;7;
40371;PMS5003;28564;53.346;-6.554;2023-01-05T01:27:20;15;15;
40371;PMS5003;28564;53.346;-6.554;2023-01-05T01:29:47;7;7;
40371;PMS5003;28564;53.346;-6.554;2023-01-05T01:32:15;2;2;
40371;PMS5003;28564;53.346;-6.554;2023-01-05T01:34:42;4;4;
40371;PMS5003;28564;53.346;-6.554;2023-01-05T01:37:10;4;3;
40371;PMS5003;28564;53.346;-6.554;2023-01-05T01:39:37;3;3;
40371;PMS5003;28564;53.346;-6.554;2023-01-05T01:42:05;3;3;
40371;PMS5003;28564;53.346;-6.554;2023-01-05T01:44:53;7;4;
40371;PMS5003;28564;53.346;-6.554;2023-01-05T01:47:24;4;2;
40371;PMS5003;28564;53.346;-6.554;2023-01-05T01:49:54;4;3;
40371;PMS5003;28564;53.346;-6.554;2023-01-05T01:52:22;3;3;
40371;PMS5003;28564;53.346;-6.554;2023-01-05T01:54:52;4;3;
40371;PMS5003;28564;53.346;-6.554;2023-01-05T01:57:20;6;3;
40371;PMS5003;28564;53.346;-6.554;2023-01-05T01:59:49;10;4;
40371;PMS5003;28564;53.346;-6.554;2023-01-05T02:02:17;3;3;
40371;PMS5003;28564;53.346;-6.554;2023-01-05T02:04:48;6;6;
40371;PMS5003;28564;53.346;-6.554;2023-01-05T02:07:16;5;3;
40371;PMS5003;28564;53.346;-6.554;2023-01-05T02:09:43;8;6;
40371;PMS5003;28564;53.346;-6.554;2023-01-05T02:12:15;2;2;
40371;PMS5003;28564;53.346;-6.554;2023-01-05T02:14:54;6;4;
40371;PMS5003;28564;53.346;-6.554;2023-01-05T02:17:33;3;3;
40371;PMS5003;28564;53.346;-6.554;2023-01-05T02:20:27;4;3;
40371;PMS5003;28564;53.346;-6.554;2023-01-05T02:23:13;8;4;
40371;PMS5003;28564;53.346;-6.554;2023-01-05T02:26:00;5;4;
40371;PMS5003;28564;53.346;-6.554;2023-01-05T02:28:52;4;3;
40371;PMS5003;28564;53.346;-6.554;2023-01-05T02:31:52;5;4;
40371;PMS5003;28564;53.346;-6.554;2023-01-05T02:34:27;3;1;
40371;PMS5003;28564;53.346;-6.554;2023-01-05T02:37:00;3;3;
40371;PMS5003;28564;53.346;-6.554;2023-01-05T02:39:37;5;3;
40371;PMS5003;28564;53.346;-6.554;2023-01-05T02:42:11;8;4;
40371;PMS5003;28564;53.346;-6.554;2023-01-05T02:44:42;3;3;
40371;PMS5003;28564;53.346;-6.554;2023-01-05T02:47:34;4;3;
40371;PMS5003;28564;53.346;-6.554;2023-01-05T02:50:05;5;3;
40371;PMS5003;28564;53.346;-6.554;2023-01-05T02:52:39;7;4;
40371;PMS5003;28564;53.346;-6.554;2023-01-05T02:55:10;9;2;
40371;PMS5003;28564;53.346;-6.554;2023-01-05T02:57:45;8;2;
40371;PMS5003;28564;53.346;-6.554;2023-01-05T03:00:18;7;3;
40371;PMS5003;28564;53.346;-6.554;2023-01-05T03:02:48;3;3;
40371;PMS5003;28564;53.346;-6.554;2023-01-05T03:05:20;4;2;
40371;PMS5003;28564;53.346;-6.554;2023-01-05T03:07:52;11;5;
40371;PMS5003;28564;53.346;-6.554;2023-01-05T03:10:22;4;2;
40371;PMS5003;28564;53.346;-6.554;2023-01-05T03:12:50;3;3;
40371;PMS5003;28564;53.346;-6.554;2023-01-05T03:15:23;3;1;
40371;PMS5003;28564;53.346;-6.554;2023-01-05T03:17:54;1;1;
40371;PMS5003;28564;53.346;-6.554;2023-01-05T03:20:24;1;1;
40371;PMS5003;28564;53.346;-6.554;2023-01-05T03:22:55;3;2;
40371;PMS5003;28564;53.346;-6.554;2023-01-05T03:25:25;1;1;
40371;PMS5003;28564;53.346;-6.554;2023-01-05T03:27:53;4;2;
40371;PMS5003;28564;53.346;-6.554;2023-01-05T03:30:21;7;3;
40371;PMS5003;28564;53.346;-6.554;2023-01-05T03:32:54;7;4;
40371;PMS5003;28564;53.346;-6.554;2023-01-05T03:35:28;4;3;
40371;PMS5003;28564;53.346;-6.554;2023-01-05T03:38:01;4;3;
40371;PMS5003;28564;53.346;-6.554;2023-01-05T03:40:36;4;3;
40371;PMS5003;28564;53.346;-6.554;2023-01-05T03:43:04;7;2;
40371;PMS5003;28564;53.346;-6.554;2023-01-05T03:45:33;5;2;
40371;PMS5003;28564;53.346;-6.554;2023-01-05T03:48:05;5;2;
40371;PMS5003;28564;53.346;-6.554;2023-01-05T03:50:32;2;2;
40371;PMS5003;28564;53.346;-6.554;2023-01-05T03:53:00;5;3;
40371;PMS5003;28564;53.346;-6.554;2023-01-05T03:55:27;4;3;
40371;PMS5003;28564;53.346;-6.554;2023-01-05T03:57:54;2;1;
40371;PMS5003;28564;53.346;-6.554;2023-01-05T04:00:21;8;3;
40371;PMS5003;28564;53.346;-6.554;2023-01-05T04:02:48;6;3;
40371;PMS5003;28564;53.346;-6.554;2023-01-05T04:05:16;5;2;
40371;PMS5003;28564;53.346;-6.554;2023-01-05T04:07:43;5;2;
40371;PMS5003;28564;53.346;-6.554;2023-01-05T04:10:10;7;3;
40371;PMS5003;28564;53.346;-6.554;2023-01-05T04:12:37;6;5;
40371;PMS5003;28564;53.346;-6.554;2023-01-05T04:15:05;5;2;
40371;PMS5003;28564;53.346;-6.554;2023-01-05T04:17:33;6;2;
40371;PMS5003;28564;53.346;-6.554;2023-01-05T04:20:00;8;5;
40371;PMS5003;28564;53.346;-6.554;2023-01-05T04:22:27;6;4;
40371;PMS5003;28564;53.346;-6.554;2023-01-05T04:24:54;7;4;
40371;PMS5003;28564;53.346;-6.554;2023-01-05T04:27:21;6;3;
40371;PMS5003;28564;53.346;-6.554;2023-01-05T04:29:49;8;4;
40371;PMS5003;28564;53.346;-6.554;2023-01-05T04:32:16;5;4;
40371;PMS5003;28564;53.346;-6.554;2023-01-05T04:34:43;7;3;
40371;PMS5003;28564;53.346;-6.554;2023-01-05T04:37:10;6;5;
40371;PMS5003;28564;53.346;-6.554;2023-01-05T04:39:37;7;4;
40371;PMS5003;28564;53.346;-6.554;2023-01-05T04:42:04;6;3;
40371;PMS5003;28564;53.346;-6.554;2023-01-05T04:44:31;2;2;
40371;PMS5003;28564;53.346;-6.554;2023-01-05T04:46:58;4;2;
40371;PMS5003;28564;53.346;-6.554;2023-01-05T04:49:26;5;3;
40371;PMS5003;28564;53.346;-6.554;2023-01-05T04:51:53;6;3;
40371;PMS5003;28564;53.346;-6.554;2023-01-05T04:54:20;2;2;
40371;PMS5003;28564;53.346;-6.554;2023-01-05T04:56:47;6;5;
40371;PMS5003;28564;53.346;-6.554;2023-01-05T04:59:14;5;3;
40371;PMS5003;28564;53.346;-6.554;2023-01-05T05:01:41;3;3;
40371;PMS5003;28564;53.346;-6.554;2023-01-05T05:04:09;4;3;
40371;PMS5003;28564;53.346;-6.554;2023-01-05T05:06:36;2;2;
40371;PMS5003;28564;53.346;-6.554;2023-01-05T05:09:03;7;4;
40371;PMS5003;28564;53.346;-6.554;2023-01-05T05:11:30;9;4;
40371;PMS5003;28564;53.346;-6.554;2023-01-05T05:13:57;5;3;
40371;PMS5003;28564;53.346;-6.554;2023-01-05T05:16:24;4;2;
40371;PMS5003;28564;53.346;-6.554;2023-01-05T05:18:52;4;3;
40371;PMS5003;28564;53.346;-6.554;2023-01-05T05:21:20;6;4;
40371;PMS5003;28564;53.346;-6.554;2023-01-05T05:23:47;4;2;
40371;PMS5003;28564;53.346;-6.554;2023-01-05T05:26:14;5;4;
40371;PMS5003;28564;53.346;-6.554;2023-01-05T05:28:41;7;4;
40371;PMS5003;28564;53.346;-6.554;2023-01-05T05:31:08;4;4;
40371;PMS5003;28564;53.346;-6.554;2023-01-05T05:33:35;5;2;
40371;PMS5003;28564;53.346;-6.554;2023-01-05T05:36:03;5;5;
40371;PMS5003;28564;53.346;-6.554;2023-01-05T05:38:31;7;4;
40371;PMS5003;28564;53.346;-6.554;2023-01-05T05:40:58;6;2;
40371;PMS5003;28564;53.346;-6.554;2023-01-05T05:43:26;5;3;
40371;PMS5003;28564;53.346;-6.554;2023-01-05T05:45:53;5;5;
40371;PMS5003;28564;53.346;-6.554;2023-01-05T05:48:20;6;2;
40371;PMS5003;28564;53.346;-6.554;2023-01-05T05:50:48;4;2;
40371;PMS5003;28564;53.346;-6.554;2023-01-05T05:53:15;7;3;
40371;PMS5003;28564;53.346;-6.554;2023-01-05T05:55:42;3;3;
40371;PMS5003;28564;53.346;-6.554;2023-01-05T05:58:13;3;2;
40371;PMS5003;28564;53.346;-6.554;2023-01-05T06:00:40;5;2;
40371;PMS5003;28564;53.346;-6.554;2023-01-05T06:03:07;6;3;
40371;PMS5003;28564;53.346;-6.554;2023-01-05T06:05:34;2;2;
40371;PMS5003;28564;53.346;-6.554;2023-01-05T06:08:01;8;4;
40371;PMS5003;28564;53.346;-6.554;2023-01-05T06:10:28;4;2;
40371;PMS5003;28564;53.346;-6.554;2023-01-05T06:12:55;2;2;
40371;PMS5003;28564;53.346;-6.554;2023-01-05T06:15:22;4;3;
40371;PMS5003;28564;53.346;-6.554;2023-01-05T06:17:50;7;3;
40371;PMS5003;28564;53.346;-6.554;2023-01-05T06:20:17;1;1;
40371;PMS5003;28564;53.346;-6.554;2023-01-05T06:22:44;2;2;
40371;PMS5003;28564;53.346;-6.554;2023-01-05T06:25:11;6;4;
40371;PMS5003;28564;53.346;-6.554;2023-01-05T06:27:39;3;3;
40371;PMS5003;28564;53.346;-6.554;2023-01-05T06:30:07;4;2;
40371;PMS5003;28564;53.346;-6.554;2023-01-05T06:32:34;3;2;
40371;PMS5003;28564;53.346;-6.554;2023-01-05T06:35:01;2;2;
40371;PMS5003;28564;53.346;-6.554;2023-01-05T06:37:28;0;0;
40371;PMS5003;28564;53.346;-6.554;2023-01-05T06:39:55;4;1;
40371;PMS5003;28564;53.346;-6.554;2023-01-05T06:42:23;1;1;
40371;PMS5003;28564;53.346;-6.554;2023-01-05T06:44:50;2;2;
40371;PMS5003;28564;53.346;-6.554;2023-01-05T06:47:17;2;2;
40371;PMS5003;28564;53.346;-6.554;2023-01-05T06:49:45;1;1;
40371;PMS5003;28564;53.346;-6.554;2023-01-05T06:52:12;2;1;
40371;PMS5003;28564;53.346;-6.554;2023-01-05T06:54:39;3;3;
40371;PMS5003;28564;53.346;-6.554;2023-01-05T06:57:06;3;2;
40371;PMS5003;28564;53.346;-6.554;2023-01-05T06:59:33;1;1;
40371;PMS5003;28564;53.346;-6.554;2023-01-05T07:02:01;1;1;
40371;PMS5003;28564;53.346;-6.554;2023-01-05T07:04:28;2;1;
40371;PMS5003;28564;53.346;-6.554;2023-01-05T07:06:55;2;2;
40371;PMS5003;28564;53.346;-6.554;2023-01-05T07:09:22;1;1;
40371;PMS5003;28564;53.346;-6.554;2023-01-05T07:11:49;3;2;
40371;PMS5003;28564;53.346;-6.554;2023-01-05T07:14:16;1;1;
40371;PMS5003;28564;53.346;-6.554;2023-01-05T07:16:43;1;1;
40371;PMS5003;28564;53.346;-6.554;2023-01-05T07:19:10;1;1;
40371;PMS5003;28564;53.346;-6.554;2023-01-05T07:21:38;1;1;
40371;PMS5003;28564;53.346;-6.554;2023-01-05T07:24:05;5;1;
40371;PMS5003;28564;53.346;-6.554;2023-01-05T07:26:33;3;1;
40371;PMS5003;28564;53.346;-6.554;2023-01-05T07:29:00;1;1;
40371;PMS5003;28564;53.346;-6.554;2023-01-05T07:31:27;2;2;
40371;PMS5003;28564;53.346;-6.554;2023-01-05T07:33:54;2;2;
40371;PMS5003;28564;53.346;-6.554;2023-01-05T07:36:21;2;1;
40371;PMS5003;28564;53.346;-6.554;2023-01-05T07:38:48;3;2;
40371;PMS5003;28564;53.346;-6.554;2023-01-05T07:41:16;3;2;
40371;PMS5003;28564;53.346;-6.554;2023-01-05T07:43:44;3;1;
40371;PMS5003;28564;53.346;-6.554;2023-01-05T07:46:14;1;1;
40371;PMS5003;28564;53.346;-6.554;2023-01-05T07:48:41;4;1;
40371;PMS5003;28564;53.346;-6.554;2023-01-05T07:51:09;3;2;
40371;PMS5003;28564;53.346;-6.554;2023-01-05T07:53:36;2;2;
40371;PMS5003;28564;53.346;-6.554;2023-01-05T07:56:04;3;1;
40371;PMS5003;28564;53.346;-6.554;2023-01-05T07:58:32;1;1;
40371;PMS5003;28564;53.346;-6.554;2023-01-05T08:01:01;2;1;
40371;PMS5003;28564;53.346;-6.554;2023-01-05T08:03:29;3;1;
40371;PMS5003;28564;53.346;-6.554;2023-01-05T08:05:56;1;1;
40371;PMS5003;28564;53.346;-6.554;2023-01-05T08:08:24;2;2;
40371;PMS5003;28564;53.346;-6.554;2023-01-05T08:10:51;2;1;
40371;PMS5003;28564;53.346;-6.554;2023-01-05T08:13:18;3;3;
40371;PMS5003;28564;53.346;-6.554;2023-01-05T08:15:45;4;2;
40371;PMS5003;28564;53.346;-6.554;2023-01-05T08:18:12;1;1;
40371;PMS5003;28564;53.346;-6.554;2023-01-05T08:20:39;4;2;
40371;PMS5003;28564;53.346;-6.554;2023-01-05T08:23:06;5;2;
40371;PMS5003;28564;53.346;-6.554;2023-01-05T08:25:34;9;6;
40371;PMS5003;28564;53.346;-6.554;2023-01-05T08:28:01;2;1;
40371;PMS5003;28564;53.346;-6.554;2023-01-05T08:30:29;1;1;
40371;PMS5003;28564;53.346;-6.554;2023-01-05T08:32:56;9;2;
40371;PMS5003;28564;53.346;-6.554;2023-01-05T08:35:23;1;1;
40371;PMS5003;28564;53.346;-6.554;2023-01-05T08:37:51;4;3;
40371;PMS5003;28564;53.346;-6.554;2023-01-05T08:40:18;3;1;
40371;PMS5003;28564;53.346;-6.554;2023-01-05T08:42:45;3;2;
40371;PMS5003;28564;53.346;-6.554;2023-01-05T08:45:12;2;2;
40371;PMS5003;28564;53.346;-6.554;2023-01-05T08:47:39;2;1;
40371;PMS5003;28564;53.346;-6.554;2023-01-05T08:50:07;2;2;
40371;PMS5003;28564;53.346;-6.554;2023-01-05T08:52:34;5;3;
40371;PMS5003;28564;53.346;-6.554;2023-01-05T08:55:03;6;1;
40371;PMS5003;28564;53.346;-6.554;2023-01-05T08:57:31;3;2;
40371;PMS5003;28564;53.346;-6.554;2023-01-05T08:59:58;8;3;
40371;PMS5003;28564;53.346;-6.554;2023-01-05T09:02:25;2;1;
40371;PMS5003;28564;53.346;-6.554;2023-01-05T09:04:53;4;3;
40371;PMS5003;28564;53.346;-6.554;2023-01-05T09:07:20;5;2;
40371;PMS5003;28564;53.346;-6.554;2023-01-05T09:09:47;5;2;
40371;PMS5003;28564;53.346;-6.554;2023-01-05T09:12:14;4;2;
40371;PMS5003;28564;53.346;-6.554;2023-01-05T09:14:41;3;2;
40371;PMS5003;28564;53.346;-6.554;2023-01-05T09:17:08;5;2;
40371;PMS5003;28564;53.346;-6.554;2023-01-05T09:19:36;2;1;
40371;PMS5003;28564;53.346;-6.554;2023-01-05T09:22:02;6;3;
40371;PMS5003;28564;53.346;-6.554;2023-01-05T09:24:29;3;3;
40371;PMS5003;28564;53.346;-6.554;2023-01-05T09:26:56;4;3;
40371;PMS5003;28564;53.346;-6.554;2023-01-05T09:29:23;7;2;
40371;PMS5003;28564;53.346;-6.554;2023-01-05T09:31:51;5;2;
40371;PMS5003;28564;53.346;-6.554;2023-01-05T09:34:18;4;2;
40371;PMS5003;28564;53.346;-6.554;2023-01-05T09:36:45;4;2;
40371;PMS5003;28564;53.346;-6.554;2023-01-05T09:39:12;2;2;
40371;PMS5003;28564;53.346;-6.554;2023-01-05T09:41:40;5;4;
40371;PMS5003;28564;53.346;-6.554;2023-01-05T09:44:12;6;4;
40371;PMS5003;28564;53.346;-6.554;2023-01-05T09:46:46;6;3;
40371;PMS5003;28564;53.346;-6.554;2023-01-05T09:49:17;2;2;
40371;PMS5003;28564;53.346;-6.554;2023-01-05T09:51:48;3;3;
40371;PMS5003;28564;53.346;-6.554;2023-01-05T09:54:20;3;2;
40371;PMS5003;28564;53.346;-6.554;2023-01-05T09:56:51;2;2;
40371;PMS5003;28564;53.346;-6.554;2023-01-05T09:59:22;5;3;
40371;PMS5003;28564;53.346;-6.554;2023-01-05T10:03:53;1;1;
40371;PMS5003;28564;53.346;-6.554;2023-01-05T10:06:24;4;2;
40371;PMS5003;28564;53.346;-6.554;2023-01-05T10:08:54;5;1;
40371;PMS5003;28564;53.346;-6.554;2023-01-05T10:11:23;3;1;
40371;PMS5003;28564;53.346;-6.554;2023-01-05T10:14:00;4;1;
40371;PMS5003;28564;53.346;-6.554;2023-01-05T10:16:30;4;1;
40371;PMS5003;28564;53.346;-6.554;2023-01-05T10:18:58;2;2;
40371;PMS5003;28564;53.346;-6.554;2023-01-05T10:21:29;1;1;
40371;PMS5003;28564;53.346;-6.554;2023-01-05T10:24:09;7;1;
40371;PMS5003;28564;53.346;-6.554;2023-01-05T10:26:46;4;3;
40371;PMS5003;28564;53.346;-6.554;2023-01-05T10:29:21;5;2;
40371;PMS5003;28564;53.346;-6.554;2023-01-05T10:31:54;0;0;
40371;PMS5003;28564;53.346;-6.554;2023-01-05T10:34:33;3;2;
40371;PMS5003;28564;53.346;-6.554;2023-01-05T10:37:20;2;2;
40371;PMS5003;28564;53.346;-6.554;2023-01-05T10:40:08;3;2;
40371;PMS5003;28564;53.346;-6.554;2023-01-05T10:42:51;3;1;
40371;PMS5003;28564;53.346;-6.554;2023-01-05T10:45:29;3;1;
40371;PMS5003;28564;53.346;-6.554;2023-01-05T10:47:57;1;1;
40371;PMS5003;28564;53.346;-6.554;2023-01-05T10:50:29;3;1;
40371;PMS5003;28564;53.346;-6.554;2023-01-05T10:53:05;1;1;
40371;PMS5003;28564;53.346;-6.554;2023-01-05T10:55:37;5;4;
40371;PMS5003;28564;53.346;-6.554;2023-01-05T10:58:19;5;1;
40371;PMS5003;28564;53.346;-6.554;2023-01-05T11:00:48;2;2;
40371;PMS5003;28564;53.346;-6.554;2023-01-05T11:03:16;4;1;
40371;PMS5003;28564;53.346;-6.554;2023-01-05T11:05:48;3;2;
40371;PMS5003;28564;53.346;-6.554;2023-01-05T11:08:15;3;3;
40371;PMS5003;28564;53.346;-6.554;2023-01-05T11:10:49;2;1;
40371;PMS5003;28564;53.346;-6.554;2023-01-05T11:13:21;3;1;
40371;PMS5003;28564;53.346;-6.554;2023-01-05T11:15:55;1;1;
40371;PMS5003;28564;53.346;-6.554;2023-01-05T11:18:30;1;1;
40371;PMS5003;28564;53.346;-6.554;2023-01-05T11:21:04;0;0;
40371;PMS5003;28564;53.346;-6.554;2023-01-05T11:23:39;2;1;
40371;PMS5003;28564;53.346;-6.554;2023-01-05T11:26:16;3;2;
40371;PMS5003;28564;53.346;-6.554;2023-01-05T11:29:00;1;1;
40371;PMS5003;28564;53.346;-6.554;2023-01-05T11:31:33;2;2;
40371;PMS5003;28564;53.346;-6.554;2023-01-05T11:34:05;6;2;
40371;PMS5003;28564;53.346;-6.554;2023-01-05T11:36:35;3;2;
40371;PMS5003;28564;53.346;-6.554;2023-01-05T11:39:02;3;1;
40371;PMS5003;28564;53.346;-6.554;2023-01-05T11:41:30;3;3;
40371;PMS5003;28564;53.346;-6.554;2023-01-05T11:43:58;6;3;
40371;PMS5003;28564;53.346;-6.554;2023-01-05T11:46:25;3;1;
40371;PMS5003;28564;53.346;-6.554;2023-01-05T11:49:16;2;2;
40371;PMS5003;28564;53.346;-6.554;2023-01-05T11:51:44;0;0;
40371;PMS5003;28564;53.346;-6.554;2023-01-05T11:54:25;2;2;
40371;PMS5003;28564;53.346;-6.554;2023-01-05T11:57:10;3;2;
40371;PMS5003;28564;53.346;-6.554;2023-01-05T11:59:40;2;1;
40371;PMS5003;28564;53.346;-6.554;2023-01-05T12:02:13;2;1;
40371;PMS5003;28564;53.346;-6.554;2023-01-05T12:05:02;1;1;
40371;PMS5003;28564;53.346;-6.554;2023-01-05T12:07:44;4;2;
40371;PMS5003;28564;53.346;-6.554;2023-01-05T12:10:24;4;1;
40371;PMS5003;28564;53.346;-6.554;2023-01-05T12:13:01;2;2;
40371;PMS5003;28564;53.346;-6.554;2023-01-05T12:15:40;3;2;
40371;PMS5003;28564;53.346;-6.554;2023-01-05T12:18:22;0;0;
40371;PMS5003;28564;53.346;-6.554;2023-01-05T12:20:38;1;1;
40371;PMS5003;28564;53.346;-6.554;2023-01-05T12:23:19;3;1;
40371;PMS5003;28564;53.346;-6.554;2023-01-05T12:25:57;1;1;
40371;PMS5003;28564;53.346;-6.554;2023-01-05T12:28:39;4;1;
40371;PMS5003;28564;53.346;-6.554;2023-01-05T12:32:30;4;1;
40371;PMS5003;28564;53.346;-6.554;2023-01-05T12:35:18;3;3;
40371;PMS5003;28564;53.346;-6.554;2023-01-05T12:38:00;2;1;
40371;PMS5003;28564;53.346;-6.554;2023-01-05T12:40:48;1;1;
40371;PMS5003;28564;53.346;-6.554;2023-01-05T12:43:33;3;2;
40371;PMS5003;28564;53.346;-6.554;2023-01-05T12:46:12;3;3;
40371;PMS5003;28564;53.346;-6.554;2023-01-05T12:48:51;3;3;
40371;PMS5003;28564;53.346;-6.554;2023-01-05T12:51:23;6;4;
40371;PMS5003;28564;53.346;-6.554;2023-01-05T12:53:57;1;1;
40371;PMS5003;28564;53.346;-6.554;2023-01-05T12:56:30;7;5;
40371;PMS5003;28564;53.346;-6.554;2023-01-05T12:59:07;5;2;
40371;PMS5003;28564;53.346;-6.554;2023-01-05T13:01:41;3;2;
40371;PMS5003;28564;53.346;-6.554;2023-01-05T13:04:22;6;3;
40371;PMS5003;28564;53.346;-6.554;2023-01-05T13:06:59;4;3;
40371;PMS5003;28564;53.346;-6.554;2023-01-05T13:09:29;38;33;
40371;PMS5003;28564;53.346;-6.554;2023-01-05T13:11:59;13;11;
40371;PMS5003;28564;53.346;-6.554;2023-01-05T13:14:32;16;12;
40371;PMS5003;28564;53.346;-6.554;2023-01-05T13:17:02;21;15;
40371;PMS5003;28564;53.346;-6.554;2023-01-05T13:19:34;10;10;
40371;PMS5003;28564;53.346;-6.554;2023-01-05T13:22:13;11;10;
40371;PMS5003;28564;53.346;-6.554;2023-01-05T13:24:48;10;10;
40371;PMS5003;28564;53.346;-6.554;2023-01-05T13:27:17;18;15;
40371;PMS5003;28564;53.346;-6.554;2023-01-05T13:29:45;20;20;
40371;PMS5003;28564;53.346;-6.554;2023-01-05T13:32:26;11;9;
40371;PMS5003;28564;53.346;-6.554;2023-01-05T13:35:39;23;19;
40371;PMS5003;28564;53.346;-6.554;2023-01-05T13:38:24;40;36;
40371;PMS5003;28564;53.346;-6.554;2023-01-05T13:41:16;55;55;
40371;PMS5003;28564;53.346;-6.554;2023-01-05T13:44:00;55;53;
40371;PMS5003;28564;53.346;-6.554;2023-01-05T13:47:00;47;46;
40371;PMS5003;28564;53.346;-6.554;2023-01-05T13:49:58;41;38;
40371;PMS5003;28564;53.346;-6.554;2023-01-05T13:52:40;45;44;
40371;PMS5003;28564;53.346;-6.554;2023-01-05T13:55:22;55;53;
40371;PMS5003;28564;53.346;-6.554;2023-01-05T13:57:52;50;49;
40371;PMS5003;28564;53.346;-6.554;2023-01-05T14:00:21;54;53;
40371;PMS5003;28564;53.346;-6.554;2023-01-05T14:02:56;47;46;
40371;PMS5003;28564;53.346;-6.554;2023-01-05T14:05:29;59;54;
40371;PMS5003;28564;53.346;-6.554;2023-01-05T14:07:59;4;3;
40371;PMS5003;28564;53.346;-6.554;2023-01-05T14:10:31;4;2;
40371;PMS5003;28564;53.346;-6.554;2023-01-05T14:12:59;1;1;
40371;PMS5003;28564;53.346;-6.554;2023-01-05T14:15:32;1;1;
40371;PMS5003;28564;53.346;-6.554;2023-01-05T14:18:03;2;1;
40371;PMS5003;28564;53.346;-6.554;2023-01-05T14:20:32;4;1;
40371;PMS5003;28564;53.346;-6.554;2023-01-05T14:23:03;6;2;
40371;PMS5003;28564;53.346;-6.554;2023-01-05T14:26:58;1;1;
40371;PMS5003;28564;53.346;-6.554;2023-01-05T14:30:00;1;1;
40371;PMS5003;28564;53.346;-6.554;2023-01-05T14:32:28;0;0;
40371;PMS5003;28564;53.346;-6.554;2023-01-05T14:34:59;2;1;
40371;PMS5003;28564;53.346;-6.554;2023-01-05T14:37:33;5;2;
40371;PMS5003;28564;53.346;-6.554;2023-01-05T14:40:12;2;0;
40371;PMS5003;28564;53.346;-6.554;2023-01-05T14:42:46;0;0;
40371;PMS5003;28564;53.346;-6.554;2023-01-05T14:45:19;0;0;
40371;PMS5003;28564;53.346;-6.554;2023-01-05T14:47:48;4;1;
40371;PMS5003;28564;53.346;-6.554;2023-01-05T14:50:28;2;2;
40371;PMS5003;28564;53.346;-6.554;2023-01-05T14:52:58;0;0;
40371;PMS5003;28564;53.346;-6.554;2023-01-05T14:55:29;0;0;
40371;PMS5003;28564;53.346;-6.554;2023-01-05T14:57:59;0;0;
40371;PMS5003;28564;53.346;-6.554;2023-01-05T15:00:36;0;0;
40371;PMS5003;28564;53.346;-6.554;2023-01-05T15:03:15;1;1;
40371;PMS5003;28564;53.346;-6.554;2023-01-05T15:05:52;1;0;
40371;PMS5003;28564;53.346;-6.554;2023-01-05T15:08:29;2;1;
40371;PMS5003;28564;53.346;-6.554;2023-01-05T15:11:45;1;1;
40371;PMS5003;28564;53.346;-6.554;2023-01-05T15:14:43;3;0;
40371;PMS5003;28564;53.346;-6.554;2023-01-05T15:19:45;2;1;
40371;PMS5003;28564;53.346;-6.554;2023-01-05T15:22:29;0;0;
40371;PMS5003;28564;53.346;-6.554;2023-01-05T15:25:12;3;0;
40371;PMS5003;28564;53.346;-6.554;2023-01-05T15:28:58;2;2;
40371;PMS5003;28564;53.346;-6.554;2023-01-05T15:31:41;1;1;
40371;PMS5003;28564;53.346;-6.554;2023-01-05T15:34:15;1;0;
40371;PMS5003;28564;53.346;-6.554;2023-01-05T15:36:53;3;0;
40371;PMS5003;28564;53.346;-6.554;2023-01-05T15:39:26;0;0;
40371;PMS5003;28564;53.346;-6.554;2023-01-05T15:41:57;2;1;
40371;PMS5003;28564;53.346;-6.554;2023-01-05T15:44:30;4;1;
40371;PMS5003;28564;53.346;-6.554;2023-01-05T15:46:59;0;0;
40371;PMS5003;28564;53.346;-6.554;2023-01-05T15:49:29;0;0;
40371;PMS5003;28564;53.346;-6.554;2023-01-05T15:51:58;1;1;
40371;PMS5003;28564;53.346;-6.554;2023-01-05T15:54:27;1;0;
40371;PMS5003;28564;53.346;-6.554;2023-01-05T15:56:56;2;0;
40371;PMS5003;28564;53.346;-6.554;2023-01-05T15:59:27;0;0;
40371;PMS5003;28564;53.346;-6.554;2023-01-05T16:01:56;1;1;
40371;PMS5003;28564;53.346;-6.554;2023-01-05T16:04:24;5;2;
40371;PMS5003;28564;53.346;-6.554;2023-01-05T16:06:57;8;4;
40371;PMS5003;28564;53.346;-6.554;2023-01-05T16:09:29;10;3;
40371;PMS5003;28564;53.346;-6.554;2023-01-05T16:11:59;7;3;
40371;PMS5003;28564;53.346;-6.554;2023-01-05T16:14:42;13;6;
40371;PMS5003;28564;53.346;-6.554;2023-01-05T16:17:12;7;4;
40371;PMS5003;28564;53.346;-6.554;2023-01-05T16:19:44;7;7;
40371;PMS5003;28564;53.346;-6.554;2023-01-05T16:22:15;8;6;
40371;PMS5003;28564;53.346;-6.554;2023-01-05T16:24:49;7;4;
40371;PMS5003;28564;53.346;-6.554;2023-01-05T16:27:22;5;4;
40371;PMS5003;28564;53.346;-6.554;2023-01-05T16:29:50;9;6;
40371;PMS5003;28564;53.346;-6.554;2023-01-05T16:32:33;7;4;
40371;PMS5003;28564;53.346;-6.554;2023-01-05T16:36:09;7;5;
40371;PMS5003;28564;53.346;-6.554;2023-01-05T16:38:43;4;4;
40371;PMS5003;28564;53.346;-6.554;2023-01-05T16:41:12;8;4;
40371;PMS5003;28564;53.346;-6.554;2023-01-05T16:43:49;8;5;
40371;PMS5003;28564;53.346;-6.554;2023-01-05T16:46:27;6;4;
40371;PMS5003;28564;53.346;-6.554;2023-01-05T16:48:58;10;6;
40371;PMS5003;28564;53.346;-6.554;2023-01-05T16:51:38;9;4;
40371;PMS5003;28564;53.346;-6.554;2023-01-05T16:54:10;13;8;
40371;PMS5003;28564;53.346;-6.554;2023-01-05T16:56:44;11;5;
40371;PMS5003;28564;53.346;-6.554;2023-01-05T16:59:30;14;7;
40371;PMS5003;28564;53.346;-6.554;2023-01-05T17:02:25;18;15;
40371;PMS5003;28564;53.346;-6.554;2023-01-05T17:05:08;7;5;
40371;PMS5003;28564;53.346;-6.554;2023-01-05T17:07:37;8;6;
40371;PMS5003;28564;53.346;-6.554;2023-01-05T17:10:06;10;7;